Time;durP1;ratioP1;P1;durP2;ratioP2;P2;SDS_P1;SDS_P2;PMS_P1;PMS_P2;Temp;Humidity;BMP_temperature;BMP_pressure;BME280_temperature;BME280_humidity;BME280_pressure;Samples;Min_cycle;Max_cycle;Signal;HPM_P1;HPM_P2
2023/01/17 00:02:06;;;;;;;8.10;6.97;;;4.20;41.10;;;;;;4865750;29;20201;-68
2023/01/17 00:10:21;;;;;;;7.93;7.00;;;4.30;1.00;;;;;;4871642;29;20587;-67
2023/01/17 00:12:50;;;;;;;8.03;6.40;;;4.30;1.00;;;;;;4863718;29;20589;-69
2023/01/17 00:15:18;;;;;;;7.60;6.83;;;4.30;1.00;;;;;;4866855;29;20567;-68
2023/01/17 00:17:46;;;;;;;8.30;6.17;;;4.30;1.00;;;;;;4871394;29;20190;-67
2023/01/17 00:26:03;;;;;;;7.17;6.57;;;4.20;1.00;;;;;;4868438;29;20205;-68
2023/01/17 01:35:52;;;;;;;11.10;8.97;;;3.80;1.00;;;;;;4886752;29;20193;-69
2023/01/17 01:38:22;;;;;;;12.57;9.37;;;3.90;1.00;;;;;;4885094;29;20285;-69
2023/01/17 01:40:51;;;;;;;11.53;10.33;;;3.80;49.70;;;;;;4868474;29;20759;-68
2023/01/17 01:43:40;;;;;;;13.50;10.50;;;3.90;82.40;;;;;;4884406;29;20297;-68
2023/01/17 01:46:11;;;;;;;9.80;8.77;;;3.90;13.90;;;;;;4877511;29;20423;-68
2023/01/17 01:48:55;;;;;;;14.73;10.57;;;3.90;22.60;;;;;;4852986;29;20253;-68
2023/01/17 01:51:26;;;;;;;12.47;11.00;;;3.90;1.00;;;;;;4868524;29;20634;-70
2023/01/17 01:54:00;;;;;;;11.90;10.70;;;3.90;1.00;;;;;;4884738;29;20225;-68
2023/01/17 01:56:29;;;;;;;12.43;11.13;;;3.90;1.00;;;;;;4883963;29;20618;-68
2023/01/17 01:58:57;;;;;;;12.87;11.33;;;3.90;1.00;;;;;;4876326;29;20641;-69
2023/01/17 02:01:25;;;;;;;12.07;10.83;;;3.90;1.00;;;;;;4883733;29;20212;-69
2023/01/17 02:03:52;;;;;;;14.27;12.33;;;3.90;1.00;;;;;;4875504;29;20221;-69
2023/01/17 02:06:51;;;;;;;14.13;11.70;;;3.90;1.00;;;;;;4885244;29;20327;-69
2023/01/17 02:09:19;;;;;;;14.67;12.50;;;3.90;1.00;;;;;;4876104;29;20757;-69
2023/01/17 02:11:48;;;;;;;12.90;11.33;;;3.90;1.00;;;;;;4876286;29;20220;-69
2023/01/17 02:14:17;;;;;;;12.57;10.93;;;3.80;43.00;;;;;;4884857;29;20754;-69
2023/01/17 02:17:17;;;;;;;11.97;10.77;;;3.90;99.90;;;;;;4885879;29;20207;-69
2023/01/17 02:20:02;;;;;;;14.27;11.43;;;3.90;1.00;;;;;;4886096;29;20234;-69
2023/01/17 02:22:29;;;;;;;10.87;8.63;;;3.90;1.00;;;;;;4882358;29;20257;-69
2023/01/17 02:25:05;;;;;;;11.40;8.50;;;3.90;1.00;;;;;;4884797;29;20206;-68
2023/01/17 02:28:02;;;;;;;12.37;8.70;;;3.80;1.00;;;;;;4882894;29;20224;-68
2023/01/17 02:30:44;;;;;;;8.53;7.57;;;3.80;1.00;;;;;;4883526;29;20216;-68
2023/01/17 02:33:23;;;;;;;10.37;7.33;;;3.80;1.00;;;;;;4866579;29;20754;-68
2023/01/17 02:36:07;;;;;;;9.10;6.23;;;3.80;1.00;;;;;;4867705;29;20276;-69
2023/01/17 02:39:00;;;;;;;7.67;5.73;;;3.80;1.00;;;;;;4882865;29;20288;-68
2023/01/17 02:41:33;;;;;;;6.17;5.57;;;3.90;1.00;;;;;;4883309;29;20200;-68
2023/01/17 02:44:01;;;;;;;4.53;4.13;;;3.90;1.00;;;;;;4866562;29;20677;-68
2023/01/17 02:46:28;;;;;;;5.10;4.60;;;3.80;1.00;;;;;;4884929;29;20228;-69
2023/01/17 02:48:57;;;;;;;7.87;4.77;;;3.80;1.00;;;;;;4873903;29;20236;-69
2023/01/17 02:51:24;;;;;;;6.13;5.03;;;3.80;1.00;;;;;;4884333;29;20558;-69
2023/01/17 02:54:17;;;;;;;5.20;4.70;;;3.80;1.00;;;;;;4867925;29;20293;-69
2023/01/17 02:57:23;;;;;;;5.53;4.60;;;3.80;94.60;;;;;;4883105;29;20232;-69
2023/01/17 03:00:14;;;;;;;6.93;4.93;;;3.70;1.00;;;;;;4885733;29;20200;-70
2023/01/17 03:03:09;;;;;;;7.67;6.03;;;3.60;69.80;;;;;;4885109;29;20198;-70
2023/01/17 03:05:53;;;;;;;8.00;5.00;;;3.60;99.90;;;;;;4873989;29;20356;-67
2023/01/17 03:08:21;;;;;;;6.27;5.67;;;3.60;99.90;;;;;;4867346;29;20252;-68
2023/01/17 03:10:48;;;;;;;7.17;5.43;;;3.60;99.90;;;;;;4866922;29;20221;-67
2023/01/17 03:13:15;;;;;;;10.47;6.23;;;3.60;1.00;;;;;;4873833;29;20204;-67
2023/01/17 03:15:42;;;;;;;5.43;4.93;;;3.50;1.00;;;;;;4867246;29;20201;-67
2023/01/17 03:18:14;;;;;;;4.03;3.40;;;3.30;1.00;;;;;;4882814;29;20205;-69
2023/01/17 03:20:41;;;;;;;3.87;3.40;;;3.10;1.00;;;;;;4896361;29;20213;-69
2023/01/17 03:23:08;;;;;;;3.20;2.90;;;2.90;1.00;;;;;;4873728;29;20205;-69
2023/01/17 03:25:35;;;;;;;3.63;3.33;;;2.80;99.90;;;;;;4866882;29;20268;-68
2023/01/17 03:28:02;;;;;;;4.17;3.60;;;2.60;99.90;;;;;;4866525;29;20212;-67
2023/01/17 03:30:29;;;;;;;3.97;3.30;;;2.50;1.00;;;;;;4881490;29;20233;-68
2023/01/17 03:32:56;;;;;;;4.77;3.60;;;2.50;1.00;;;;;;4874643;29;20209;-69
2023/01/17 03:35:23;;;;;;;5.27;4.23;;;2.50;1.00;;;;;;4882745;29;20197;-68
2023/01/17 03:37:50;;;;;;;5.57;5.00;;;2.50;90.70;;;;;;4882361;29;20275;-67
2023/01/17 03:40:17;;;;;;;8.07;6.13;;;2.50;1.00;;;;;;4883407;29;20730;-69
2023/01/17 03:42:44;;;;;;;12.67;10.03;;;2.50;1.00;;;;;;4884198;29;20201;-67
2023/01/17 03:45:11;;;;;;;7.93;6.73;;;2.50;1.00;;;;;;4882823;29;20205;-67
2023/01/17 03:47:38;;;;;;;13.23;9.53;;;2.50;1.00;;;;;;4884065;29;20208;-67
2023/01/17 03:50:06;;;;;;;12.90;9.43;;;2.50;1.00;;;;;;4873264;29;20243;-67
2023/01/17 03:52:33;;;;;;;10.17;8.97;;;2.50;1.00;;;;;;4880432;29;20488;-67
2023/01/17 03:55:01;;;;;;;11.00;8.90;;;2.50;1.00;;;;;;4882222;29;20210;-69
2023/01/17 03:57:28;;;;;;;14.57;8.90;;;2.40;1.00;;;;;;4883014;29;20297;-69
2023/01/17 03:59:55;;;;;;;9.70;8.10;;;2.50;1.00;;;;;;4874073;29;20739;-69
2023/01/17 04:02:23;;;;;;;9.37;7.80;;;2.50;1.00;;;;;;4866645;29;20233;-68
2023/01/17 04:04:50;;;;;;;11.20;7.27;;;2.40;1.00;;;;;;4884077;29;20256;-68
2023/01/17 04:07:17;;;;;;;6.03;4.60;;;2.40;1.00;;;;;;4881345;29;20726;-70
2023/01/17 04:09:44;;;;;;;6.33;4.43;;;2.30;1.00;;;;;;4883202;29;20232;-71
2023/01/17 04:12:11;;;;;;;4.10;3.70;;;2.20;1.00;;;;;;4882933;29;20209;-72
2023/01/17 04:14:39;;;;;;;6.17;3.83;;;2.10;1.00;;;;;;4883634;29;20291;-72
2023/01/17 04:17:13;;;;;;;3.37;3.07;;;2.10;1.00;;;;;;4873250;29;20304;-72
2023/01/17 04:19:40;;;;;;;4.33;3.43;;;2.10;1.00;;;;;;4882000;29;20291;-71
2023/01/17 04:22:07;;;;;;;5.27;4.37;;;2.10;1.00;;;;;;4882586;29;20236;-69
2023/01/17 04:24:34;;;;;;;5.50;4.90;;;1.90;1.00;;;;;;4882279;29;20193;-69
2023/01/17 04:27:03;;;;;;;5.10;4.43;;;1.90;1.00;;;;;;4880649;29;20562;-69
2023/01/17 04:29:30;;;;;;;6.83;4.97;;;1.90;1.00;;;;;;4882054;29;20241;-70
2023/01/17 04:31:57;;;;;;;6.10;5.37;;;1.90;1.00;;;;;;4881051;29;20706;-71
2023/01/17 04:34:24;;;;;;;7.07;6.07;;;1.80;1.00;;;;;;4874980;29;20210;-72
2023/01/17 04:36:51;;;;;;;7.23;6.50;;;1.80;99.90;;;;;;4882484;29;20229;-70
2023/01/17 04:39:18;;;;;;;7.27;6.20;;;1.70;99.90;;;;;;4873548;29;20300;-69
2023/01/17 04:41:45;;;;;;;11.23;7.50;;;1.70;99.90;;;;;;4874596;29;20482;-69
2023/01/17 04:44:12;;;;;;;10.17;7.67;;;1.70;1.00;;;;;;4885266;29;20197;-69
2023/01/17 04:46:39;;;;;;;10.47;8.10;;;1.70;1.00;;;;;;4881470;29;20594;-73
2023/01/17 04:49:06;;;;;;;11.47;9.07;;;1.70;1.00;;;;;;4867560;29;20225;-72
2023/01/17 04:51:33;;;;;;;12.47;8.97;;;1.70;1.00;;;;;;4881169;29;20631;-73
2023/01/17 04:54:00;;;;;;;13.70;10.40;;;1.70;99.90;;;;;;4882528;29;20205;-72
2023/01/17 04:56:27;;;;;;;14.60;11.77;;;1.70;99.90;;;;;;4873806;29;20201;-72
2023/01/17 04:58:56;;;;;;;15.60;12.43;;;1.80;99.90;;;;;;4874003;29;20722;-72
2023/01/17 05:01:24;;;;;;;17.37;11.77;;;1.70;99.90;;;;;;4884084;29;20210;-73
2023/01/17 05:03:51;;;;;;;16.57;12.20;;;1.70;99.90;;;;;;4867653;29;20243;-72
2023/01/17 05:06:18;;;;;;;16.60;13.00;;;1.80;1.00;;;;;;4885817;29;20281;-71
2023/01/17 05:08:45;;;;;;;17.07;13.13;;;1.80;99.90;;;;;;4885828;29;20280;-70
2023/01/17 05:11:13;;;;;;;15.77;12.77;;;1.80;99.90;;;;;;4885926;29;20732;-70
2023/01/17 05:13:40;;;;;;;17.43;13.40;;;1.80;1.00;;;;;;4886041;29;20223;-70
2023/01/17 05:16:07;;;;;;;19.47;14.13;;;1.80;99.90;;;;;;4886653;29;20228;-69
2023/01/17 05:18:34;;;;;;;18.07;14.10;;;1.80;99.90;;;;;;4885802;29;20209;-69
2023/01/17 05:21:04;;;;;;;16.77;11.90;;;1.80;99.90;;;;;;4884974;29;20240;-70
2023/01/17 05:23:31;;;;;;;18.40;13.50;;;1.80;99.90;;;;;;4886519;29;20236;-70
2023/01/17 05:25:59;;;;;;;15.50;11.63;;;1.80;99.90;;;;;;4884240;29;20211;-70
2023/01/17 05:28:26;;;;;;;14.57;10.87;;;1.90;99.90;;;;;;4886566;29;20216;-70
2023/01/17 05:30:52;;;;;;;16.33;11.97;;;1.90;99.90;;;;;;4884965;29;20923;-71
2023/01/17 05:33:19;;;;;;;20.43;11.73;;;1.90;1.00;;;;;;4885522;29;20261;-70
2023/01/17 05:35:46;;;;;;;17.70;11.43;;;1.90;1.00;;;;;;4884420;29;20224;-71
2023/01/17 05:38:13;;;;;;;20.97;13.10;;;1.90;99.90;;;;;;4885426;29;20233;-68
2023/01/17 05:40:40;;;;;;;18.67;13.37;;;1.90;99.90;;;;;;4885506;29;20213;-68
2023/01/17 05:43:07;;;;;;;19.73;14.03;;;1.90;99.90;;;;;;4885782;29;20837;-67
2023/01/17 05:45:35;;;;;;;23.30;14.63;;;1.90;99.90;;;;;;4886039;29;20573;-68
2023/01/17 05:48:02;;;;;;;21.47;14.23;;;1.80;99.90;;;;;;4883367;29;20607;-68
2023/01/17 05:50:36;;;;;;;23.03;15.03;;;1.70;99.90;;;;;;4863321;29;20262;-68
2023/01/17 05:53:09;;;;;;;31.20;18.83;;;1.70;1.00;;;;;;4872795;29;20228;-67
2023/01/17 05:55:36;;;;;;;30.33;17.87;;;1.80;1.00;;;;;;4884059;29;20198;-67
2023/01/17 05:58:04;;;;;;;31.57;19.83;;;1.90;1.00;;;;;;4884279;29;20737;-68
2023/01/17 06:00:31;;;;;;;29.47;18.70;;;1.90;1.00;;;;;;4875274;29;20197;-67
2023/01/17 06:02:59;;;;;;;32.70;19.70;;;2.00;1.00;;;;;;4885817;29;20245;-67
2023/01/17 06:05:27;;;;;;;26.73;17.53;;;2.00;1.00;;;;;;4882152;29;20649;-67
2023/01/17 06:07:55;;;;;;;33.73;20.77;;;2.00;1.00;;;;;;4873763;29;20754;-69
2023/01/17 06:10:23;;;;;;;28.97;18.77;;;2.00;1.00;;;;;;4874966;29;20225;-67
2023/01/17 06:12:58;;;;;;;28.47;20.70;;;2.10;1.00;;;;;;4875616;29;20338;-67
2023/01/17 06:15:25;;;;;;;32.50;21.47;;;2.10;1.00;;;;;;4883602;29;20673;-67
2023/01/17 06:17:52;;;;;;;33.23;23.13;;;2.10;99.90;;;;;;4884935;29;20658;-68
2023/01/17 06:20:19;;;;;;;34.50;21.40;;;2.10;99.90;;;;;;4865485;29;20202;-67
2023/01/17 06:22:46;;;;;;;26.57;19.83;;;2.10;4.80;;;;;;4882404;29;20565;-67
2023/01/17 06:25:13;;;;;;;28.20;20.47;;;2.10;1.00;;;;;;4881333;29;20709;-67
2023/01/17 06:27:40;;;;;;;27.77;18.67;;;2.20;52.50;;;;;;4881056;29;20275;-67
2023/01/17 06:30:08;;;;;;;28.13;17.63;;;2.20;74.40;;;;;;4874764;29;20220;-67
2023/01/17 06:32:35;;;;;;;26.20;18.03;;;2.20;1.00;;;;;;4883641;29;20214;-67
2023/01/17 06:35:02;;;;;;;22.30;15.53;;;2.20;1.00;;;;;;4868139;29;20206;-67
2023/01/17 06:37:29;;;;;;;25.13;16.30;;;2.20;1.00;;;;;;4866655;29;20674;-67
2023/01/17 06:39:56;;;;;;;25.90;14.80;;;2.20;1.00;;;;;;4875066;29;20202;-67
2023/01/17 06:42:23;;;;;;;23.07;14.03;;;2.20;1.00;;;;;;4884850;29;20270;-67
2023/01/17 06:44:50;;;;;;;19.93;13.67;;;2.20;1.00;;;;;;4866830;29;20204;-67
2023/01/17 06:47:17;;;;;;;24.10;15.17;;;2.20;1.00;;;;;;4885865;29;20664;-68
2023/01/17 06:49:44;;;;;;;21.87;14.40;;;2.20;1.00;;;;;;4871773;29;20260;-69
2023/01/17 06:52:11;;;;;;;21.00;14.20;;;2.20;1.00;;;;;;4884356;29;20734;-68
2023/01/17 06:54:38;;;;;;;26.83;16.60;;;2.20;1.00;;;;;;4882679;29;20268;-68
2023/01/17 06:57:05;;;;;;;25.83;16.13;;;2.20;1.00;;;;;;4880219;29;20607;-68
2023/01/17 06:59:33;;;;;;;28.57;18.50;;;2.20;99.90;;;;;;4887245;29;20231;-68
2023/01/17 07:02:00;;;;;;;24.23;16.30;;;2.20;99.90;;;;;;4873671;29;20227;-68
2023/01/17 07:04:27;;;;;;;23.83;16.27;;;2.20;1.00;;;;;;4880398;29;20328;-69
2023/01/17 07:06:54;;;;;;;23.20;15.73;;;2.10;1.00;;;;;;4884001;29;20197;-67
2023/01/17 07:09:21;;;;;;;24.80;16.47;;;2.00;1.00;;;;;;4883828;29;20208;-68
2023/01/17 07:11:48;;;;;;;22.50;16.77;;;2.00;99.90;;;;;;4881710;29;20281;-68
2023/01/17 07:14:16;;;;;;;26.87;15.77;;;2.10;99.90;;;;;;4882403;29;20212;-67
2023/01/17 07:16:44;;;;;;;25.43;15.30;;;2.10;40.70;;;;;;4869194;29;20209;-67
2023/01/17 07:19:12;;;;;;;23.07;15.23;;;2.10;8.20;;;;;;4874940;29;20960;-67
2023/01/17 07:21:39;;;;;;;25.50;15.07;;;2.10;1.00;;;;;;4875719;29;20245;-67
2023/01/17 07:24:07;;;;;;;21.17;14.53;;;2.10;99.90;;;;;;4884543;29;20212;-67
2023/01/17 07:26:36;;;;;;;21.90;14.27;;;2.20;99.90;;;;;;4871384;29;20208;-67
2023/01/17 07:29:04;;;;;;;20.90;13.60;;;2.10;1.00;;;;;;4874934;29;20219;-67
2023/01/17 07:31:35;;;;;;;22.13;14.23;;;2.20;99.90;;;;;;4882723;29;20256;-68
2023/01/17 07:34:03;;;;;;;20.67;13.80;;;2.20;99.90;;;;;;4882956;29;20197;-67
2023/01/17 07:36:30;;;;;;;23.20;13.30;;;2.20;99.90;;;;;;4867503;29;20216;-67
2023/01/17 07:38:57;;;;;;;23.50;16.27;;;2.20;99.90;;;;;;4874401;29;20197;-67
2023/01/17 07:41:24;;;;;;;28.53;18.47;;;2.20;99.90;;;;;;4874298;29;20200;-67
2023/01/17 07:43:51;;;;;;;19.77;12.30;;;2.20;99.90;;;;;;4882628;29;20209;-67
2023/01/17 07:46:21;;;;;;;18.37;13.37;;;2.20;1.00;;;;;;4876349;29;20209;-67
2023/01/17 07:48:48;;;;;;;20.70;12.57;;;2.20;1.00;;;;;;4884295;29;20232;-67
2023/01/17 07:51:16;;;;;;;21.50;12.83;;;2.20;1.00;;;;;;4882719;29;21230;-67
2023/01/17 07:53:43;;;;;;;18.90;12.43;;;2.20;1.00;;;;;;4883737;29;20227;-67
2023/01/17 07:56:10;;;;;;;23.80;13.63;;;2.10;1.00;;;;;;4880671;29;20592;-67
2023/01/17 07:58:37;;;;;;;23.23;12.93;;;2.10;1.00;;;;;;4874541;29;20228;-67
2023/01/17 08:01:06;;;;;;;20.70;13.57;;;2.20;1.00;;;;;;4876314;29;20554;-67
2023/01/17 08:03:38;;;;;;;24.80;14.33;;;2.20;1.00;;;;;;4884231;29;20239;-68
2023/01/17 08:06:14;;;;;;;21.23;13.73;;;2.20;1.00;;;;;;4883630;29;20260;-68
2023/01/17 08:08:41;;;;;;;24.60;13.80;;;2.20;1.00;;;;;;4884676;29;20282;-68
2023/01/17 08:11:08;;;;;;;26.20;13.63;;;2.20;1.00;;;;;;4882920;29;20260;-69
2023/01/17 08:13:35;;;;;;;21.53;14.00;;;2.20;99.90;;;;;;4876285;29;20222;-68
2023/01/17 08:16:02;;;;;;;23.43;14.73;;;2.20;99.90;;;;;;4868415;29;20228;-68
2023/01/17 08:18:29;;;;;;;20.50;13.30;;;2.20;99.90;;;;;;4879301;29;20197;-68
2023/01/17 08:20:56;;;;;;;21.63;12.93;;;2.30;99.90;;;;;;4878690;29;20200;-69
2023/01/17 08:23:24;;;;;;;19.67;14.00;;;2.30;99.90;;;;;;4883818;29;20273;-67
2023/01/17 08:25:51;;;;;;;27.60;13.80;;;2.20;71.10;;;;;;4874692;29;20718;-68
2023/01/17 08:28:18;;;;;;;22.03;13.27;;;2.30;88.20;;;;;;4883507;29;20291;-68
2023/01/17 08:30:45;;;;;;;25.00;13.57;;;2.30;1.00;;;;;;4881976;29;20216;-67
2023/01/17 08:33:12;;;;;;;21.53;13.07;;;2.30;49.40;;;;;;4883752;29;20615;-67
2023/01/17 08:35:49;;;;;;;19.60;13.90;;;2.40;1.00;;;;;;4879352;29;20252;-68
2023/01/17 08:38:16;;;;;;;24.93;13.57;;;2.40;1.00;;;;;;4884601;29;20216;-67
2023/01/17 08:40:43;;;;;;;22.23;13.40;;;2.50;1.00;;;;;;4872492;29;20209;-68
2023/01/17 08:43:11;;;;;;;19.23;13.20;;;2.40;1.00;;;;;;4879126;29;20223;-67
2023/01/17 08:45:42;;;;;;;21.97;13.60;;;2.50;1.00;;;;;;4884707;29;20658;-67
2023/01/17 08:48:12;;;;;;;23.47;14.13;;;2.60;1.00;;;;;;4888562;29;20209;-67
2023/01/17 08:50:39;;;;;;;22.40;12.93;;;2.60;1.00;;;;;;4887898;29;20209;-67
2023/01/17 08:53:06;;;;;;;21.43;13.80;;;2.70;1.00;;;;;;4877765;29;20234;-67
2023/01/17 08:55:38;;;;;;;17.03;12.80;;;2.90;1.00;;;;;;4886050;29;20230;-67
2023/01/17 08:58:05;;;;;;;19.30;13.03;;;3.20;99.90;;;;;;4875566;29;20233;-67
2023/01/17 09:00:33;;;;;;;23.90;13.20;;;3.40;99.90;;;;;;4887995;29;20204;-68
2023/01/17 09:03:01;;;;;;;18.00;12.43;;;3.60;99.90;;;;;;4885706;29;20197;-67
2023/01/17 09:05:28;;;;;;;17.60;12.40;;;3.80;99.90;;;;;;4869508;29;20232;-68
2023/01/17 09:07:55;;;;;;;15.60;10.27;;;3.70;99.90;;;;;;4886323;29;20212;-69
2023/01/17 09:10:22;;;;;;;15.47;10.57;;;3.60;64.20;;;;;;4881891;29;20209;-68
2023/01/17 09:12:49;;;;;;;17.53;11.00;;;3.40;58.00;;;;;;4870209;29;20221;-68
2023/01/17 09:15:19;;;;;;;16.33;10.57;;;3.50;99.90;;;;;;4886489;29;20317;-68
2023/01/17 09:17:46;;;;;;;18.23;10.47;;;3.80;45.00;;;;;;4886114;29;20232;-68
2023/01/17 09:20:13;;;;;;;16.80;11.27;;;3.90;1.00;;;;;;4870300;29;20551;-68
2023/01/17 09:22:43;;;;;;;19.57;10.83;;;3.70;35.60;;;;;;4888345;29;20201;-68
2023/01/17 09:25:12;;;;;;;15.60;10.53;;;3.30;22.50;;;;;;4886799;29;20197;-67
2023/01/17 09:27:41;;;;;;;21.07;11.87;;;3.10;71.30;;;;;;4877469;29;20210;-67
2023/01/17 09:30:09;;;;;;;18.77;11.47;;;3.00;99.90;;;;;;4886214;29;20840;-67
2023/01/17 09:32:36;;;;;;;17.43;11.80;;;2.90;99.90;;;;;;4883421;29;20628;-67
2023/01/17 09:35:06;;;;;;;18.00;12.60;;;3.00;99.90;;;;;;4886671;29;20200;-66
2023/01/17 09:37:34;;;;;;;25.13;12.17;;;3.20;99.90;;;;;;4883980;29;20287;-67
2023/01/17 09:40:01;;;;;;;21.60;13.33;;;3.20;99.90;;;;;;4888545;29;20193;-66
2023/01/17 09:42:35;;;;;;;21.07;12.13;;;3.30;99.90;;;;;;4872643;29;20281;-67
2023/01/17 09:45:03;;;;;;;13.80;10.80;;;3.30;99.90;;;;;;4887319;29;20619;-68
2023/01/17 09:47:42;;;;;;;17.13;11.27;;;3.30;99.90;;;;;;4875998;29;20197;-67
2023/01/17 09:50:41;;;;;;;15.47;10.50;;;3.60;86.30;;;;;;4884822;29;20237;-68
2023/01/17 09:53:14;;;;;;;12.70;9.77;;;3.70;11.80;;;;;;4877343;29;20253;-68
2023/01/17 09:55:51;;;;;;;10.90;8.10;;;6.10;1.00;;;;;;4882669;29;20263;-71
2023/01/17 09:58:22;;;;;;;9.30;6.80;;;7.20;1.00;;;;;;4885383;29;20200;-68
2023/01/17 10:01:26;;;;;;;10.27;6.60;;;6.70;1.00;;;;;;4886021;29;20527;-68
2023/01/17 10:04:35;;;;;;;11.80;6.13;;;6.90;1.00;;;;;;4880236;29;20585;-68
2023/01/17 10:07:13;;;;;;;13.93;8.53;;;6.00;1.00;;;;;;4885092;29;20202;-68
2023/01/17 10:10:06;;;;;;;12.43;7.83;;;6.50;1.00;;;;;;4887245;29;20197;-67
2023/01/17 10:12:45;;;;;;;8.93;7.10;;;6.20;1.00;;;;;;4870439;29;20249;-67
2023/01/17 10:15:38;;;;;;;9.77;6.87;;;5.30;1.00;;;;;;4886145;29;20197;-67
2023/01/17 10:18:46;;;;;;;9.83;7.73;;;4.70;1.00;;;;;;4867253;29;20209;-67
2023/01/17 10:21:29;;;;;;;15.27;8.33;;;4.30;1.00;;;;;;4884637;29;20643;-67
2023/01/17 10:24:15;;;;;;;10.83;7.20;;;4.40;1.00;;;;;;4870980;29;20288;-68
2023/01/17 10:26:50;;;;;;;14.63;8.00;;;4.40;1.00;;;;;;4871818;29;20197;-68
2023/01/17 10:29:19;;;;;;;13.87;9.07;;;4.40;1.00;;;;;;4886090;29;20220;-68
2023/01/17 10:32:00;;;;;;;10.03;8.03;;;4.10;1.00;;;;;;4888742;29;20208;-67
2023/01/17 10:34:40;;;;;;;16.07;9.37;;;4.30;1.00;;;;;;4868080;29;20682;-68
2023/01/17 10:37:39;;;;;;;14.40;9.37;;;4.50;1.00;;;;;;4860756;29;20224;-67
2023/01/17 10:40:30;;;;;;;14.80;8.63;;;4.60;1.00;;;;;;4873372;29;20213;-68
2023/01/17 10:43:05;;;;;;;15.10;9.03;;;5.60;1.00;;;;;;4885123;29;20205;-70
2023/01/17 10:45:42;;;;;;;14.33;9.50;;;5.70;1.00;;;;;;4858302;29;20209;-69
2023/01/17 10:48:36;;;;;;;12.53;9.07;;;6.30;1.00;;;;;;4869301;29;20213;-68
2023/01/17 10:51:12;;;;;;;14.43;8.80;;;7.30;1.00;;;;;;4868187;29;20208;-69
2023/01/17 10:53:54;;;;;;;11.07;8.27;;;7.40;1.00;;;;;;4883600;29;20256;-68
2023/01/17 10:56:26;;;;;;;13.00;7.87;;;6.90;1.00;;;;;;4884165;29;20229;-68
2023/01/17 10:59:22;;;;;;;15.77;8.07;;;6.20;1.00;;;;;;4886776;29;20224;-68
2023/01/17 11:01:49;;;;;;;12.07;6.53;;;6.40;1.00;;;;;;4886283;29;20194;-67
2023/01/17 11:04:36;;;;;;;10.57;6.83;;;6.40;1.00;;;;;;4885170;29;20212;-68
2023/01/17 11:07:12;;;;;;;7.93;6.20;;;8.70;1.00;;;;;;4884385;29;20208;-67
2023/01/17 11:09:44;;;;;;;17.60;9.73;;;11.40;1.00;;;;;;4875900;29;20201;-68
2023/01/17 11:12:26;;;;;;;17.80;11.67;;;14.30;1.00;;;;;;4883841;29;20229;-69
2023/01/17 11:15:18;;;;;;;10.60;6.50;;;14.40;1.00;;;;;;4868719;29;20741;-68
2023/01/17 11:17:51;;;;;;;8.15;5.55;;;16.10;1.00;;;;;;4869408;29;20213;-68
2023/01/17 11:20:34;;;;;;;9.38;5.28;;;16.60;1.00;;;;;;4870324;29;20614;-68
2023/01/17 11:23:28;;;;;;;11.82;6.45;;;15.60;1.00;;;;;;4886114;29;20215;-68
2023/01/17 11:26:01;;;;;;;7.57;5.95;;;15.00;1.00;;;;;;4870063;29;20197;-68
2023/01/17 11:28:31;;;;;;;10.40;6.65;;;16.30;1.00;;;;;;4868385;29;20301;-68
2023/01/17 11:31:06;;;;;;;8.43;5.53;;;14.80;1.00;;;;;;4882649;29;20193;-69
2023/01/17 11:33:47;;;;;;;10.53;5.93;;;12.10;1.00;;;;;;4884009;29;20266;-67
2023/01/17 11:36:21;;;;;;;10.70;6.10;;;10.50;1.00;;;;;;4883771;29;20221;-71
2023/01/17 11:39:02;;;;;;;9.30;6.17;;;8.80;1.00;;;;;;4881235;29;20262;-69
2023/01/17 11:41:32;;;;;;;8.33;6.37;;;7.60;1.00;;;;;;4883812;29;20266;-72
2023/01/17 11:44:00;;;;;;;12.30;6.13;;;6.30;1.00;;;;;;4867453;29;20606;-69
2023/01/17 11:46:28;;;;;;;13.53;7.00;;;5.90;1.00;;;;;;4872162;29;20236;-71
2023/01/17 11:49:00;;;;;;;11.07;6.13;;;5.70;1.00;;;;;;4882914;29;20206;-68
2023/01/17 11:51:40;;;;;;;12.63;6.60;;;5.70;1.00;;;;;;4883742;29;20190;-67
2023/01/17 11:54:23;;;;;;;11.30;7.70;;;5.50;1.00;;;;;;4886293;29;20225;-67
2023/01/17 11:56:57;;;;;;;15.10;8.33;;;6.30;1.00;;;;;;4865788;29;20196;-68
2023/01/17 11:59:34;;;;;;;9.57;6.80;;;6.40;1.00;;;;;;4874551;29;20201;-68
2023/01/17 12:02:39;;;;;;;8.90;5.90;;;7.70;1.00;;;;;;4884805;29;20201;-67
2023/01/17 12:05:36;;;;;;;14.03;6.73;;;7.10;1.00;;;;;;4880321;29;20622;-68
2023/01/17 12:08:18;;;;;;;11.43;6.63;;;6.70;1.00;;;;;;4880591;29;20301;-68
2023/01/17 12:11:01;;;;;;;9.93;6.47;;;7.40;1.00;;;;;;4885438;29;21194;-68
2023/01/17 12:14:00;;;;;;;14.67;6.37;;;7.70;1.00;;;;;;4883219;29;20626;-68
2023/01/17 12:16:49;;;;;;;12.03;5.47;;;8.00;1.00;;;;;;4883400;29;20228;-66
2023/01/17 12:20:04;;;;;;;10.03;5.93;;;7.20;1.00;;;;;;4885460;29;20682;-68
2023/01/17 12:23:04;;;;;;;8.57;5.23;;;6.20;1.00;;;;;;4849140;29;20214;-68
2023/01/17 12:25:46;;;;;;;10.40;5.77;;;6.40;1.00;;;;;;4846872;29;20762;-68
2023/01/17 12:28:33;;;;;;;13.00;6.03;;;5.70;1.00;;;;;;4868747;29;20197;-67
2023/01/17 12:31:07;;;;;;;8.67;5.00;;;6.40;1.00;;;;;;4863594;29;20213;-68
2023/01/17 12:33:46;;;;;;;11.40;5.03;;;6.90;1.00;;;;;;4856167;29;20291;-68
2023/01/17 12:36:25;;;;;;;13.77;5.73;;;7.50;1.00;;;;;;4866469;29;20225;-68
2023/01/17 12:38:52;;;;;;;9.00;5.23;;;7.80;1.00;;;;;;4882518;29;20208;-68
2023/01/17 12:41:34;;;;;;;9.97;6.00;;;8.10;1.00;;;;;;4869766;29;20693;-68
2023/01/17 12:44:01;;;;;;;10.00;7.23;;;7.00;1.00;;;;;;4885117;29;20193;-68
2023/01/17 12:46:37;;;;;;;12.23;6.40;;;6.10;1.00;;;;;;4885797;29;20201;-66
2023/01/17 12:49:19;;;;;;;9.13;6.03;;;5.70;1.00;;;;;;4884815;29;20239;-66
2023/01/17 12:51:51;;;;;;;12.83;6.53;;;5.70;1.00;;;;;;4870618;29;20685;-68
2023/01/17 12:54:40;;;;;;;10.67;6.27;;;5.40;1.00;;;;;;4869788;29;20228;-67
2023/01/17 12:57:27;;;;;;;9.63;5.80;;;5.30;1.00;;;;;;4887461;29;20209;-66
2023/01/17 13:00:11;;;;;;;13.43;6.30;;;5.00;1.00;;;;;;4885350;29;20296;-66
2023/01/17 13:03:03;;;;;;;10.70;5.80;;;5.20;1.00;;;;;;4869448;29;20299;-66
2023/01/17 13:05:40;;;;;;;13.00;5.53;;;5.90;1.00;;;;;;4886645;29;20679;-66
2023/01/17 13:08:22;;;;;;;10.67;5.57;;;6.30;1.00;;;;;;4885625;29;20215;-66
2023/01/17 13:10:56;;;;;;;15.20;5.50;;;5.80;1.00;;;;;;4868061;29;20213;-66
2023/01/17 13:13:26;;;;;;;9.70;5.47;;;5.70;1.00;;;;;;4875385;29;20303;-67
2023/01/17 13:16:01;;;;;;;16.03;6.63;;;5.40;1.00;;;;;;4870052;29;20279;-66
2023/01/17 13:18:28;;;;;;;12.63;6.97;;;5.40;1.00;;;;;;4885543;29;20203;-67
2023/01/17 13:21:20;;;;;;;19.63;6.43;;;5.50;1.00;;;;;;4870427;29;20685;-67
2023/01/17 13:23:57;;;;;;;15.23;7.00;;;5.50;1.00;;;;;;4885614;29;20205;-67
2023/01/17 13:26:43;;;;;;;13.10;6.60;;;5.00;1.00;;;;;;4878746;29;20566;-66
2023/01/17 13:29:10;;;;;;;19.70;6.63;;;4.90;1.00;;;;;;4888651;29;20635;-66
2023/01/17 13:31:40;;;;;;;14.33;6.00;;;5.00;1.00;;;;;;4890062;29;20348;-68
2023/01/17 13:34:22;;;;;;;15.90;5.93;;;5.10;1.00;;;;;;4876299;29;20228;-66
2023/01/17 13:37:18;;;;;;;9.80;5.40;;;5.60;1.00;;;;;;4875089;29;20229;-68
2023/01/17 13:40:03;;;;;;;11.93;4.57;;;6.20;1.00;;;;;;4876372;29;20237;-67
2023/01/17 13:42:53;;;;;;;12.07;5.43;;;6.40;1.00;;;;;;4872507;29;20313;-67
2023/01/17 13:45:28;;;;;;;12.47;5.00;;;6.50;1.00;;;;;;4886024;29;20288;-67
2023/01/17 13:48:15;;;;;;;10.87;4.17;;;6.30;1.00;;;;;;4859604;29;20862;-66
2023/01/17 13:50:57;;;;;;;7.67;3.90;;;5.60;1.00;;;;;;4883127;29;20218;-66
2023/01/17 13:53:33;;;;;;;12.23;4.00;;;5.50;1.00;;;;;;4870423;29;20559;-68
2023/01/17 13:56:17;;;;;;;14.93;4.23;;;5.10;1.00;;;;;;4869753;29;20205;-66
2023/01/17 13:58:53;;;;;;;12.33;4.67;;;5.20;1.00;;;;;;4886796;29;20211;-68
2023/01/17 14:01:23;;;;;;;9.70;4.10;;;5.20;1.00;;;;;;4888030;29;20200;-68
2023/01/17 14:03:50;;;;;;;8.53;4.50;;;5.30;1.00;;;;;;4889891;29;20228;-69
2023/01/17 14:06:35;;;;;;;10.63;5.50;;;5.40;1.00;;;;;;4887073;29;20296;-67
2023/01/17 14:09:11;;;;;;;9.10;4.37;;;5.20;1.00;;;;;;4887522;29;20212;-68
2023/01/17 14:11:54;;;;;;;9.00;3.60;;;5.30;1.00;;;;;;4887496;29;20279;-67
2023/01/17 14:14:42;;;;;;;10.57;4.13;;;5.20;1.00;;;;;;4886188;29;20220;-68
2023/01/17 14:17:15;;;;;;;9.57;3.80;;;5.00;1.00;;;;;;4885633;29;20249;-71
2023/01/17 14:19:47;;;;;;;15.33;4.50;;;4.80;1.00;;;;;;4887594;29;20194;-68
2023/01/17 14:22:17;;;;;;;8.03;4.07;;;4.60;1.00;;;;;;4889129;29;20197;-68
2023/01/17 14:24:59;;;;;;;12.23;4.30;;;4.50;1.00;;;;;;4870060;29;20662;-67
2023/01/17 14:27:30;;;;;;;14.60;4.03;;;4.40;1.00;;;;;;4869735;29;20200;-67
2023/01/17 14:29:58;;;;;;;10.87;4.80;;;4.40;1.00;;;;;;4889941;29;20296;-67
2023/01/17 14:32:35;;;;;;;7.80;4.13;;;4.40;1.00;;;;;;4888745;29;20209;-68
2023/01/17 14:35:04;;;;;;;10.73;5.40;;;4.40;1.00;;;;;;4869214;29;20202;-67
2023/01/17 14:37:41;;;;;;;10.27;5.33;;;4.40;1.00;;;;;;4886172;29;20226;-67
2023/01/17 14:40:20;;;;;;;10.87;5.37;;;4.50;1.00;;;;;;4886758;29;20276;-68
2023/01/17 14:43:11;;;;;;;11.97;5.40;;;4.60;1.00;;;;;;4887759;29;20230;-67
2023/01/17 14:45:40;;;;;;;13.10;5.07;;;4.70;1.00;;;;;;4889871;29;20264;-67